Atwood, California
Current Conditions -  °F | °C
As of 9:53 PM on Thursday 27 Nov 2014 (Local Time) from KFUL Reporting Station
Clear Clear  
Wind Chill: 59°   Ceiling: Unl
Heat Index: 59°   Visibility: 10mi
Dew Point: 40°   Wind: 0mph
Humidity: 49%   Direction: NA
Pressure: 30.01"   Gusts: NA
Location:  33.87°N, 117.83°W
Report Text: KFUL 280553Z 00000KT 10SM CLR 15/04 A3001 RMK AO2 SLP160 T01500044 10278 20150 50001
Loading
Personal Weather Stations






























Interactive Weather Map New forecast layout! Learn more

10-Day Weather Forecast

Advertisements
Track Severe Weather on mobile